createdAt,value
2018-03-08T00:00:57.139Z,81.50
2018-03-08T00:04:20.409Z,81.40
2018-03-08T00:07:43.672Z,83.30
2018-03-08T00:11:07.010Z,82.10
2018-03-08T00:14:31.146Z,83.80
2018-03-08T00:17:55.284Z,83.20
2018-03-08T00:21:18.576Z,83.20
2018-03-08T00:24:41.923Z,83.30
2018-03-08T00:28:05.204Z,83.40
2018-03-08T00:31:29.270Z,84.00
2018-03-08T00:34:52.607Z,83.90
2018-03-08T00:38:16.735Z,82.10
2018-03-08T00:41:40.055Z,82.00
2018-03-08T00:45:03.424Z,83.00
2018-03-08T00:48:27.537Z,81.00
2018-03-08T00:51:50.887Z,80.50
2018-03-08T00:55:14.970Z,82.90
2018-03-08T00:58:39.036Z,81.60
2018-03-08T01:02:02.358Z,81.90
2018-03-08T01:05:25.746Z,80.60
2018-03-08T01:08:49.112Z,81.50
2018-03-08T01:12:12.484Z,81.50
2018-03-08T01:15:36.625Z,83.40
2018-03-08T01:18:59.905Z,82.60
2018-03-08T01:22:24.037Z,84.60
2018-03-08T01:25:48.088Z,83.00
2018-03-08T01:29:11.436Z,82.80
2018-03-08T01:32:34.740Z,82.60
2018-03-08T01:35:58.015Z,82.60
2018-03-08T01:39:21.323Z,81.30
2018-03-08T01:42:44.659Z,81.80
2018-03-08T01:46:08.034Z,82.40
2018-03-08T01:49:32.130Z,81.80
2018-03-08T01:52:56.191Z,82.70
2018-03-08T01:56:19.448Z,82.60
2018-03-08T01:59:42.710Z,81.80
2018-03-08T02:03:06.826Z,81.90
2018-03-08T02:06:30.108Z,81.70
2018-03-08T02:09:54.240Z,81.70
2018-03-08T02:13:17.599Z,81.50
2018-03-08T02:16:40.978Z,82.20
2018-03-08T02:20:04.345Z,81.70
2018-03-08T02:23:27.715Z,82.90
2018-03-08T02:26:50.988Z,82.40
2018-03-08T02:30:15.119Z,82.60
2018-03-08T02:33:38.400Z,82.50
2018-03-08T02:37:02.473Z,81.20
2018-03-08T02:40:25.846Z,81.10
2018-03-08T02:43:49.982Z,82.60
2018-03-08T02:47:13.353Z,82.60
2018-03-08T02:50:36.722Z,82.70
2018-03-08T02:53:59.988Z,82.80
2018-03-08T02:57:24.050Z,81.60
2018-03-08T03:00:47.356Z,82.00
2018-03-08T03:04:11.406Z,83.30
2018-03-08T03:07:35.482Z,82.90
2018-03-08T03:10:59.532Z,81.50
2018-03-08T03:14:22.837Z,81.40
2018-03-08T03:17:46.881Z,80.60
2018-03-08T03:21:10.906Z,81.70
2018-03-08T03:24:35.037Z,81.30
2018-03-08T03:27:58.405Z,81.20
2018-03-08T03:31:21.748Z,81.00
2018-03-08T03:34:45.772Z,82.10
2018-03-08T03:38:09.856Z,80.50
2018-03-08T03:41:33.900Z,81.20
2018-03-08T03:44:57.918Z,83.10
2018-03-08T03:48:21.292Z,83.00
2018-03-08T03:51:44.587Z,81.80
2018-03-08T03:55:07.894Z,82.00
2018-03-08T03:58:31.955Z,82.90
2018-03-08T04:01:55.242Z,82.80
2018-03-08T04:05:19.371Z,81.70
2018-03-08T04:08:42.648Z,81.40
2018-03-08T04:12:06.736Z,82.50
2018-03-08T04:15:30.868Z,83.10
2018-03-08T04:18:54.151Z,83.00
2018-03-08T04:22:18.179Z,82.10
2018-03-08T04:25:42.262Z,81.30
2018-03-08T04:29:06.304Z,82.60
2018-03-08T04:32:30.345Z,82.40
2018-03-08T04:35:54.384Z,82.40
2018-03-08T04:39:17.736Z,82.40
2018-03-08T04:42:41.776Z,84.00
2018-03-08T04:46:05.907Z,83.60
2018-03-08T04:49:29.183Z,83.50
2018-03-08T04:52:53.265Z,83.90
2018-03-08T04:56:16.628Z,83.70
2018-03-08T04:59:39.968Z,84.30
2018-03-08T05:03:04.035Z,85.10
2018-03-08T05:06:27.408Z,85.10
2018-03-08T05:09:50.809Z,83.50
2018-03-08T05:13:14.069Z,83.70
2018-03-08T05:16:37.467Z,84.00
2018-03-08T05:20:00.768Z,84.80
2018-03-08T05:23:24.111Z,85.00
2018-03-08T05:26:48.206Z,85.40
2018-03-08T05:30:12.489Z,84.90
2018-03-08T05:33:36.626Z,85.80
2018-03-08T05:37:00.779Z,86.20
2018-03-08T05:40:24.283Z,85.50
2018-03-08T05:43:47.658Z,85.10
2018-03-08T05:47:15.402Z,85.30
2018-03-08T05:50:39.529Z,85.50
2018-03-08T05:54:03.938Z,85.40
2018-03-08T05:57:27.474Z,85.50
2018-03-08T06:00:52.206Z,86.90
2018-03-08T06:04:16.332Z,84.90
2018-03-08T06:07:40.571Z,85.00
2018-03-08T06:11:04.709Z,84.30
2018-03-08T06:14:28.890Z,84.70
2018-03-08T06:17:53.002Z,84.10
2018-03-08T06:21:16.434Z,83.90
2018-03-08T06:24:39.743Z,84.80
2018-03-08T06:28:04.466Z,83.90
2018-03-08T06:31:27.816Z,83.80
2018-03-08T06:34:56.877Z,85.30
2018-03-08T06:38:26.702Z,85.70
2018-03-08T06:41:52.935Z,85.40
2018-03-08T06:45:16.273Z,85.50
2018-03-08T06:48:39.648Z,86.20
2018-03-08T06:52:03.053Z,86.60
2018-03-08T06:55:27.102Z,87.00
2018-03-08T06:58:50.469Z,86.90
2018-03-08T07:02:14.524Z,87.00
2018-03-08T07:05:38.579Z,86.70
2018-03-08T07:09:01.965Z,86.70
2018-03-08T07:12:25.499Z,86.60
2018-03-08T07:15:49.573Z,86.60
2018-03-08T07:19:13.667Z,87.00
2018-03-08T07:22:36.942Z,86.90
2018-03-08T07:26:01.066Z,86.50
2018-03-08T07:29:24.334Z,86.40
2018-03-08T07:32:47.607Z,86.00
2018-03-08T07:36:11.664Z,86.00
2018-03-08T07:39:34.917Z,85.90
2018-03-08T07:42:59.046Z,85.50
2018-03-08T07:46:22.368Z,85.40
2018-03-08T07:49:45.718Z,84.60
2018-03-08T07:53:09.054Z,84.90
2018-03-08T07:56:32.398Z,83.80
2018-03-08T07:59:56.512Z,82.00
2018-03-08T08:03:20.556Z,81.10
2018-03-08T08:07:01.730Z,81.00
2018-03-08T08:10:25.041Z,80.70
2018-03-08T08:13:48.445Z,80.70
2018-03-08T08:17:11.790Z,80.00
2018-03-08T08:20:35.064Z,79.50
2018-03-08T08:23:59.112Z,78.10
2018-03-08T08:27:23.370Z,78.80
2018-03-08T08:30:46.709Z,77.80
2018-03-08T08:34:10.807Z,76.90
2018-03-08T08:37:34.832Z,76.20
2018-03-08T08:40:58.258Z,76.00
2018-03-08T08:44:22.303Z,75.60
2018-03-08T08:47:46.379Z,76.30
2018-03-08T08:51:10.054Z,76.20
2018-03-08T08:54:33.428Z,76.40
2018-03-08T08:57:56.753Z,75.00
2018-03-08T09:01:20.822Z,75.00
2018-03-08T09:04:44.120Z,74.90
2018-03-08T09:08:08.160Z,74.10
2018-03-08T09:11:32.281Z,75.00
2018-03-08T09:14:56.362Z,74.50
2018-03-08T09:18:20.454Z,73.60
2018-03-08T09:21:44.589Z,70.00
2018-03-08T09:25:08.058Z,69.90
2018-03-08T09:28:31.328Z,69.90
2018-03-08T09:31:54.596Z,69.30
2018-03-08T09:35:18.632Z,67.70
2018-03-08T09:38:41.892Z,67.00
2018-03-08T09:42:05.200Z,66.90
2018-03-08T09:45:28.525Z,67.50
2018-03-08T09:48:51.796Z,63.00
2018-03-08T09:52:15.122Z,64.50
2018-03-08T09:55:38.442Z,64.20
2018-03-08T09:59:01.799Z,63.60
2018-03-08T10:02:25.850Z,65.50
2018-03-08T10:05:49.176Z,65.30
2018-03-08T10:09:13.220Z,64.20
2018-03-08T10:12:37.267Z,63.00
2018-03-08T10:16:01.389Z,60.50
2018-03-08T10:19:25.519Z,61.60
2018-03-08T10:22:49.308Z,61.50
2018-03-08T10:26:13.349Z,61.40
2018-03-08T10:29:37.390Z,60.40
2018-03-08T10:33:01.439Z,58.10
2018-03-08T10:36:24.745Z,58.00
2018-03-08T10:39:48.863Z,56.20
2018-03-08T10:43:12.134Z,56.20
2018-03-08T10:46:36.172Z,54.00
2018-03-08T10:50:00.210Z,54.30
2018-03-08T10:53:24.339Z,54.40
2018-03-08T10:56:47.611Z,54.40
2018-03-08T11:00:10.951Z,55.10
2018-03-08T11:03:39.879Z,54.80
2018-03-08T11:07:03.246Z,54.90
2018-03-08T11:10:26.616Z,54.30
2018-03-08T11:13:49.884Z,54.60
2018-03-08T11:17:13.147Z,54.30
2018-03-08T11:20:36.425Z,53.30
2018-03-08T11:24:00.489Z,51.80
2018-03-08T11:27:23.829Z,51.90
2018-03-08T11:30:47.148Z,51.90
2018-03-08T11:34:10.419Z,51.70
2018-03-08T11:37:33.697Z,50.50
2018-03-08T11:40:57.822Z,49.90
2018-03-08T11:44:21.143Z,49.90
2018-03-08T11:47:44.459Z,49.80
2018-03-08T11:51:08.502Z,47.90
2018-03-08T11:54:32.581Z,47.30
2018-03-08T11:57:55.862Z,47.30
2018-03-08T12:01:19.878Z,46.90
2018-03-08T12:04:43.258Z,46.90
2018-03-08T12:08:06.534Z,46.70
2018-03-08T12:11:30.575Z,45.50
2018-03-08T12:14:54.700Z,45.20
2018-03-08T12:18:18.074Z,45.20
2018-03-08T12:21:42.192Z,44.00
2018-03-08T12:25:05.534Z,43.90
2018-03-08T12:28:29.569Z,42.30
2018-03-08T12:31:53.624Z,43.20
2018-03-08T12:35:16.934Z,43.10
2018-03-08T12:38:41.055Z,42.60
2018-03-08T12:42:05.192Z,42.30
2018-03-08T12:45:28.448Z,42.00
2018-03-08T12:48:51.862Z,42.60
2018-03-08T12:52:15.886Z,40.90
2018-03-08T12:55:39.932Z,40.90
2018-03-08T12:59:03.315Z,41.40
2018-03-08T13:02:27.417Z,41.00
2018-03-08T13:05:50.786Z,41.00
2018-03-08T13:09:14.922Z,40.40
2018-03-08T13:12:38.292Z,40.10
2018-03-08T13:16:01.573Z,40.90
2018-03-08T13:19:25.646Z,39.20
2018-03-08T13:22:48.924Z,39.20
2018-03-08T13:26:13.053Z,39.70
2018-03-08T13:29:36.421Z,39.70
2018-03-08T13:32:59.717Z,38.30
2018-03-08T13:36:22.989Z,36.10
2018-03-08T13:39:46.285Z,36.60
2018-03-08T13:43:10.393Z,38.90
2018-03-08T13:46:33.735Z,38.80
2018-03-08T13:49:57.799Z,39.10
2018-03-08T13:53:21.143Z,39.20
2018-03-08T13:56:44.451Z,37.90
2018-03-08T14:00:07.729Z,36.70
2018-03-08T14:03:31.866Z,35.50
2018-03-08T14:06:55.247Z,35.30
2018-03-08T14:10:19.376Z,32.60
2018-03-08T14:13:43.506Z,34.20
2018-03-08T14:17:06.880Z,34.20
2018-03-08T14:20:30.188Z,33.60
2018-03-08T14:23:53.469Z,33.30
2018-03-08T14:27:16.749Z,34.30
2018-03-08T14:30:40.805Z,33.00
2018-03-08T14:34:04.111Z,33.30
2018-03-08T14:37:27.424Z,34.10
2018-03-08T14:40:51.501Z,33.00
2018-03-08T14:44:14.836Z,33.00
2018-03-08T14:47:38.958Z,33.10
2018-03-08T14:51:02.242Z,33.10
2018-03-08T14:54:26.369Z,33.30
2018-03-08T14:57:50.657Z,33.20
2018-03-08T15:01:14.527Z,33.70
2018-03-08T15:04:37.923Z,32.20
2018-03-08T15:08:02.496Z,33.00
2018-03-08T15:11:25.880Z,33.90
2018-03-08T15:14:49.148Z,34.50
2018-03-08T15:18:13.234Z,35.10
2018-03-08T15:21:36.533Z,35.00
2018-03-08T15:25:01.117Z,35.70
2018-03-08T15:28:24.423Z,36.20
2018-03-08T15:31:47.735Z,36.80
2018-03-08T15:35:12.557Z,36.40
2018-03-08T15:38:35.909Z,36.50
2018-03-08T15:41:59.279Z,35.70
2018-03-08T15:45:22.643Z,36.30
2018-03-08T15:48:45.971Z,37.40
2018-03-08T15:52:10.068Z,38.40
2018-03-08T15:55:34.159Z,37.00
2018-03-08T15:58:58.235Z,37.80
2018-03-08T16:02:25.508Z,37.80
2018-03-08T16:05:49.689Z,38.20
2018-03-08T16:13:02.517Z,38.00
2018-03-08T16:16:25.816Z,39.20
2018-03-08T16:19:49.903Z,39.50
2018-03-08T16:23:14.019Z,38.80
2018-03-08T16:26:37.305Z,38.70
2018-03-08T16:30:01.360Z,38.50
2018-03-08T16:33:24.742Z,39.10
2018-03-08T16:36:49.017Z,39.80
2018-03-08T16:40:12.378Z,41.20
2018-03-08T16:43:36.502Z,41.70
2018-03-08T16:47:00.884Z,42.30
2018-03-08T16:50:24.224Z,41.90
2018-03-08T16:53:47.511Z,43.20
2018-03-08T16:57:10.861Z,43.50
2018-03-08T17:00:35.035Z,43.20
2018-03-08T17:03:59.188Z,44.40
2018-03-08T17:07:22.576Z,44.30
2018-03-08T17:10:46.745Z,43.50
2018-03-08T17:14:10.881Z,43.50
2018-03-08T17:17:35.325Z,43.40
2018-03-08T17:20:59.167Z,44.80
2018-03-08T17:24:23.512Z,47.20
2018-03-08T17:27:47.814Z,47.80
2018-03-08T17:31:12.120Z,48.60
2018-03-08T17:34:35.563Z,48.60
2018-03-08T17:38:00.591Z,49.30
2018-03-08T17:41:25.724Z,50.60
2018-03-08T17:44:49.819Z,51.90
2018-03-08T17:48:14.059Z,51.90
2018-03-08T17:51:37.424Z,51.90
2018-03-08T17:55:01.643Z,52.00
2018-03-08T17:58:24.979Z,51.80
2018-03-08T18:01:49.088Z,53.40
2018-03-08T18:05:13.153Z,53.70
2018-03-08T18:08:36.535Z,53.70
2018-03-08T18:12:00.723Z,54.50
2018-03-08T18:15:24.812Z,56.10
2018-03-08T18:18:48.946Z,55.90
2018-03-08T18:22:13.038Z,57.30
2018-03-08T18:25:36.373Z,56.40
2018-03-08T18:28:59.669Z,55.40
2018-03-08T18:32:22.934Z,55.40
2018-03-08T18:35:46.309Z,55.60
2018-03-08T18:39:09.580Z,55.40
2018-03-08T18:42:32.887Z,55.30
2018-03-08T18:45:56.175Z,55.00
2018-03-08T18:49:20.301Z,53.60
2018-03-08T18:52:43.573Z,53.50
2018-03-08T18:56:06.907Z,54.60
2018-03-08T18:59:30.975Z,54.60
2018-03-08T19:02:54.245Z,54.60
2018-03-08T19:06:17.580Z,54.90
2018-03-08T19:09:41.698Z,53.10
2018-03-08T19:13:05.100Z,53.00
2018-03-08T19:16:29.125Z,51.30
2018-03-08T19:19:53.216Z,52.40
2018-03-08T19:23:17.248Z,52.70
2018-03-08T19:26:41.268Z,52.70
2018-03-08T19:30:05.400Z,52.90
2018-03-08T19:33:28.741Z,52.90
2018-03-08T19:36:52.811Z,54.60
2018-03-08T19:40:16.183Z,54.60
2018-03-08T19:43:39.530Z,54.30
2018-03-08T19:47:02.820Z,54.80
2018-03-08T19:50:27.007Z,51.90
2018-03-08T19:53:50.330Z,51.90
2018-03-08T19:57:13.696Z,51.20
2018-03-08T20:00:37.067Z,51.60
2018-03-08T20:04:00.350Z,51.20
2018-03-08T20:07:24.437Z,49.40
2018-03-08T20:10:48.510Z,49.00
2018-03-08T20:14:11.799Z,48.90
2018-03-08T20:17:35.111Z,49.10
2018-03-08T20:20:59.164Z,48.70
2018-03-08T20:24:22.464Z,48.60
2018-03-08T20:27:46.591Z,47.80
2018-03-08T20:31:09.965Z,47.80
2018-03-08T20:34:34.049Z,48.00
2018-03-08T20:37:57.416Z,47.60
2018-03-08T20:41:20.809Z,46.90
2018-03-08T20:44:44.845Z,47.00
2018-03-08T20:48:08.921Z,46.90
2018-03-08T20:51:33.052Z,46.10
2018-03-08T20:54:56.382Z,46.10
2018-03-08T20:58:20.432Z,46.50
2018-03-08T21:01:43.781Z,46.40
2018-03-08T21:05:07.909Z,46.50
2018-03-08T21:08:31.229Z,46.40
2018-03-08T21:11:54.527Z,46.50
2018-03-08T21:15:18.597Z,46.70
2018-03-08T21:18:42.704Z,45.20
2018-03-08T21:22:06.046Z,46.00
2018-03-08T21:25:29.422Z,45.70
2018-03-08T21:28:53.474Z,47.00
2018-03-08T21:32:16.785Z,46.80
2018-03-08T21:35:40.834Z,46.20
2018-03-08T21:39:04.180Z,46.20
2018-03-08T21:42:27.460Z,46.00
2018-03-08T21:45:53.019Z,46.20
2018-03-08T21:49:16.389Z,46.20
2018-03-08T21:52:40.524Z,46.90
2018-03-08T21:56:03.846Z,46.90
2018-03-08T21:59:27.163Z,48.00
2018-03-08T22:02:50.479Z,47.60
2018-03-08T22:06:13.849Z,48.20
2018-03-08T22:09:37.259Z,48.80
2018-03-08T22:13:00.630Z,48.50
2018-03-08T22:16:23.959Z,48.30
2018-03-08T22:19:47.330Z,48.30
2018-03-08T22:23:11.435Z,47.80
2018-03-08T22:26:35.524Z,48.40
2018-03-08T22:30:00.333Z,49.60
2018-03-08T22:33:23.681Z,49.50
2018-03-08T22:36:47.780Z,50.10
2018-03-08T22:40:11.904Z,49.90
2018-03-08T22:43:35.201Z,49.90
2018-03-08T22:46:58.505Z,50.20
2018-03-08T22:50:22.561Z,50.70
2018-03-08T22:53:45.840Z,50.70
2018-03-08T22:57:09.168Z,51.00
2018-03-08T23:00:32.488Z,51.20
2018-03-08T23:03:56.227Z,50.70
2018-03-08T23:07:20.506Z,51.50
2018-03-08T23:10:43.880Z,51.40
2018-03-08T23:14:07.250Z,51.30
2018-03-08T23:17:30.685Z,51.80
2018-03-08T23:20:54.804Z,52.20
2018-03-08T23:24:19.410Z,51.60
2018-03-08T23:27:43.491Z,51.50
2018-03-08T23:31:07.565Z,52.90
2018-03-08T23:34:30.869Z,52.30
2018-03-08T23:37:54.932Z,51.20
2018-03-08T23:41:18.270Z,51.20
2018-03-08T23:44:42.413Z,51.60
2018-03-08T23:48:06.451Z,51.90
2018-03-08T23:51:29.792Z,51.90
2018-03-08T23:54:53.127Z,51.90
2018-03-08T23:58:17.265Z,51.90
